Time;durP1;ratioP1;P1;durP2;ratioP2;P2;SDS_P1;SDS_P2;PMS_P1;PMS_P2;Temp;Humidity;BMP_temperature;BMP_pressure;BME280_temperature;BME280_humidity;BME280_pressure;Samples;Min_cycle;Max_cycle;Signal;HPM_P1;HPM_P2
2023/01/23 00:01:25;;;;;;;16.35;8.68;;;2.90;82.70;;;;;;6217903;23;20188;-80
2023/01/23 00:03:55;;;;;;;23.15;11.13;;;2.90;82.70;;;;;;6218130;23;20171;-80
2023/01/23 00:06:23;;;;;;;35.22;14.50;;;2.90;82.80;;;;;;6218843;23;20425;-81
2023/01/23 00:08:51;;;;;;;43.17;18.33;;;2.80;82.80;;;;;;6218885;23;20210;-81
2023/01/23 00:11:21;;;;;;;41.05;16.27;;;2.80;82.80;;;;;;6218081;23;20661;-81
2023/01/23 00:13:50;;;;;;;51.00;19.02;;;2.80;82.90;;;;;;6217360;23;20232;-80
2023/01/23 00:16:20;;;;;;;23.00;11.70;;;2.80;82.90;;;;;;6217052;23;20172;-80
2023/01/23 00:18:49;;;;;;;33.35;15.15;;;2.80;82.90;;;;;;6218264;23;20197;-79
2023/01/23 00:21:20;;;;;;;41.30;17.17;;;2.80;83.00;;;;;;6219010;23;20187;-79
2023/01/23 00:23:50;;;;;;;24.60;11.73;;;2.80;82.90;;;;;;6217947;23;20199;-79
2023/01/23 00:26:20;;;;;;;29.50;13.30;;;2.80;83.10;;;;;;6218294;23;20272;-79
2023/01/23 00:28:49;;;;;;;21.45;10.57;;;2.80;83.20;;;;;;6181313;23;20203;-79
2023/01/23 00:31:23;;;;;;;25.88;12.13;;;2.90;83.10;;;;;;6181594;23;20176;-79
2023/01/23 00:33:55;;;;;;;31.17;13.95;;;2.90;83.00;;;;;;6217578;23;20235;-78
2023/01/23 00:36:25;;;;;;;18.35;10.20;;;3.00;83.00;;;;;;6181334;23;20153;-79
2023/01/23 00:38:55;;;;;;;23.33;10.35;;;3.00;82.90;;;;;;6181434;23;20558;-79
2023/01/23 00:41:23;;;;;;;19.27;9.88;;;3.00;82.90;;;;;;6218360;23;20561;-78
2023/01/23 00:43:51;;;;;;;25.27;14.35;;;3.00;82.80;;;;;;6185181;23;20238;-79
2023/01/23 00:46:22;;;;;;;32.08;14.57;;;3.00;82.80;;;;;;6222003;23;20149;-79
2023/01/23 00:48:50;;;;;;;23.60;10.80;;;3.00;82.80;;;;;;6221853;23;20196;-79
2023/01/23 00:51:18;;;;;;;19.15;10.02;;;3.00;82.90;;;;;;6220884;23;20799;-79
2023/01/23 00:53:47;;;;;;;21.13;11.25;;;3.00;82.80;;;;;;6219294;23;20176;-81
2023/01/23 00:56:15;;;;;;;21.55;11.38;;;3.00;82.70;;;;;;6183253;23;20214;-79
2023/01/23 00:58:43;;;;;;;17.45;9.68;;;3.00;82.90;;;;;;6187712;23;20263;-78
2023/01/23 01:01:13;;;;;;;23.92;12.40;;;3.00;83.00;;;;;;6188609;23;20211;-79
2023/01/23 01:03:43;;;;;;;19.60;10.27;;;3.10;83.10;;;;;;6185605;23;20215;-80
2023/01/23 01:06:12;;;;;;;20.38;10.63;;;3.00;82.80;;;;;;6221968;23;20542;-80
2023/01/23 01:08:40;;;;;;;23.13;12.38;;;3.00;82.70;;;;;;6183897;23;20206;-80
2023/01/23 01:11:08;;;;;;;23.80;10.43;;;3.00;82.60;;;;;;6222119;23;20219;-80
2023/01/23 01:13:37;;;;;;;28.17;13.98;;;3.00;82.70;;;;;;6183584;23;20830;-80
2023/01/23 01:16:06;;;;;;;21.42;11.63;;;3.00;82.80;;;;;;6187408;23;20176;-78
2023/01/23 01:18:36;;;;;;;19.23;11.40;;;3.00;82.80;;;;;;6225698;23;20192;-79
2023/01/23 01:21:08;;;;;;;22.02;12.13;;;3.00;82.90;;;;;;6222981;23;20184;-81
2023/01/23 01:23:36;;;;;;;15.90;10.68;;;3.00;82.90;;;;;;6219740;23;20191;-80
2023/01/23 01:26:05;;;;;;;22.85;12.63;;;3.00;82.90;;;;;;6220767;23;20176;-79
2023/01/23 01:28:34;;;;;;;26.80;15.55;;;3.10;83.00;;;;;;6187036;23;20816;-78
2023/01/23 01:31:05;;;;;;;19.50;12.20;;;3.20;83.00;;;;;;6226901;23;20186;-79
2023/01/23 01:33:34;;;;;;;18.35;10.80;;;3.20;83.00;;;;;;6224996;23;20227;-78
2023/01/23 01:36:02;;;;;;;20.13;11.13;;;3.20;83.00;;;;;;6188520;23;20194;-79
2023/01/23 01:38:33;;;;;;;18.00;10.30;;;3.30;83.00;;;;;;6183699;23;20207;-79
2023/01/23 01:41:01;;;;;;;15.95;8.95;;;3.30;82.70;;;;;;6223303;23;20157;-80
2023/01/23 01:43:29;;;;;;;16.02;9.38;;;3.20;82.50;;;;;;6222610;23;20651;-79
2023/01/23 01:46:11;;;;;;;20.10;11.82;;;3.20;82.60;;;;;;6184540;23;20176;-79
2023/01/23 01:48:44;;;;;;;19.48;10.90;;;3.20;82.70;;;;;;6221725;23;20215;-79
2023/01/23 01:51:19;;;;;;;17.38;10.30;;;3.20;82.80;;;;;;6221981;23;20161;-79
2023/01/23 01:53:51;;;;;;;23.85;11.98;;;3.30;82.80;;;;;;6223005;23;20164;-80
2023/01/23 01:56:20;;;;;;;18.05;10.65;;;3.30;82.70;;;;;;6226603;23;20163;-78
2023/01/23 01:58:52;;;;;;;20.42;12.20;;;3.30;82.80;;;;;;6189649;23;20206;-80
2023/01/23 02:01:20;;;;;;;20.50;11.57;;;3.40;82.90;;;;;;6188442;23;20203;-79
2023/01/23 02:03:50;;;;;;;18.50;10.85;;;3.40;82.80;;;;;;6191188;23;20180;-79
2023/01/23 02:06:19;;;;;;;16.40;9.90;;;3.40;82.80;;;;;;6185556;23;20260;-79
2023/01/23 02:08:52;;;;;;;19.92;12.18;;;3.40;82.60;;;;;;6221265;23;20361;-79
2023/01/23 02:11:20;;;;;;;20.65;11.93;;;3.40;82.60;;;;;;6191816;23;20163;-80
2023/01/23 02:13:49;;;;;;;22.42;11.30;;;3.50;82.50;;;;;;6183422;23;20207;-80
2023/01/23 02:16:20;;;;;;;25.40;14.25;;;3.50;82.50;;;;;;6182281;23;20180;-79
2023/01/23 02:18:52;;;;;;;23.80;13.82;;;3.50;82.50;;;;;;6185033;23;20212;-79
2023/01/23 02:21:22;;;;;;;20.83;12.38;;;3.50;82.40;;;;;;6222907;23;20164;-79
2023/01/23 02:24:08;;;;;;;20.40;11.10;;;3.50;82.50;;;;;;6186069;23;20300;-79
2023/01/23 02:26:40;;;;;;;17.05;10.13;;;3.50;82.40;;;;;;6188201;23;20179;-80
2023/01/23 02:29:09;;;;;;;16.40;9.95;;;3.50;82.20;;;;;;6187365;23;20207;-80
2023/01/23 02:31:45;;;;;;;16.65;10.02;;;3.40;82.10;;;;;;6185000;23;20172;-80
2023/01/23 02:34:14;;;;;;;19.77;10.45;;;3.40;82.10;;;;;;6184538;23;20191;-80
2023/01/23 02:36:47;;;;;;;18.13;10.35;;;3.40;82.20;;;;;;6184662;23;20204;-80
2023/01/23 02:39:17;;;;;;;21.35;11.32;;;3.30;82.10;;;;;;6184264;23;20195;-82
2023/01/23 02:41:51;;;;;;;20.10;12.73;;;3.30;82.00;;;;;;6183081;23;20826;-80
2023/01/23 02:44:27;;;;;;;18.92;11.50;;;3.30;82.20;;;;;;6186386;23;20176;-79
2023/01/23 02:47:06;;;;;;;15.65;9.10;;;3.30;82.30;;;;;;6187913;23;20487;-80
2023/01/23 02:49:34;;;;;;;20.75;10.85;;;3.30;82.20;;;;;;6220131;23;20161;-81
2023/01/23 02:52:06;;;;;;;21.67;10.50;;;3.20;82.20;;;;;;6183426;23;20248;-81
2023/01/23 02:54:36;;;;;;;21.92;11.30;;;3.20;82.20;;;;;;6183606;23;20854;-80
2023/01/23 02:57:05;;;;;;;19.33;10.73;;;3.20;82.30;;;;;;6220849;23;20168;-83
2023/01/23 03:02:20;;;;;;;21.00;11.90;;;3.20;82.20;;;;;;6185656;23;20635;-79
2023/01/23 03:04:48;;;;;;;21.45;12.18;;;3.20;82.20;;;;;;6183519;23;20206;-80
2023/01/23 03:07:17;;;;;;;22.02;11.75;;;3.10;82.30;;;;;;6182993;23;20659;-80
2023/01/23 03:09:46;;;;;;;25.08;13.75;;;3.10;82.30;;;;;;6218458;23;20180;-79
2023/01/23 03:12:17;;;;;;;22.23;12.27;;;3.10;82.20;;;;;;6181762;23;20866;-81
2023/01/23 03:14:47;;;;;;;18.52;10.50;;;3.10;82.30;;;;;;6182102;23;20174;-79
2023/01/23 03:17:15;;;;;;;19.17;10.77;;;3.20;82.40;;;;;;6181154;23;20196;-79
2023/01/23 03:19:44;;;;;;;21.00;10.10;;;3.20;82.40;;;;;;6181549;23;20560;-79
2023/01/23 03:22:12;;;;;;;19.15;10.45;;;3.20;82.30;;;;;;6181235;23;20280;-80
2023/01/23 03:24:40;;;;;;;17.80;10.00;;;3.20;82.40;;;;;;6217876;23;20183;-78
2023/01/23 03:27:08;;;;;;;17.45;9.82;;;3.20;82.40;;;;;;6219532;23;20196;-79
2023/01/23 03:32:29;;;;;;;16.38;9.25;;;3.20;82.30;;;;;;6182851;23;20256;-78
2023/01/23 03:34:58;;;;;;;17.55;10.10;;;3.20;82.30;;;;;;6183252;23;20180;-79
2023/01/23 03:37:26;;;;;;;20.25;10.73;;;3.20;82.20;;;;;;6182815;23;20654;-80
2023/01/23 03:42:40;;;;;;;17.75;9.70;;;3.20;82.10;;;;;;6220235;23;20180;-80
2023/01/23 03:45:13;;;;;;;16.17;8.88;;;3.20;82.20;;;;;;6185243;23;20568;-81
2023/01/23 03:47:41;;;;;;;16.85;9.70;;;3.10;82.10;;;;;;6184301;23;20208;-77
2023/01/23 03:50:10;;;;;;;16.70;9.10;;;3.10;82.10;;;;;;6184658;23;20173;-81
2023/01/23 03:52:39;;;;;;;14.80;9.50;;;3.10;82.20;;;;;;6183697;23;20191;-80
2023/01/23 03:55:09;;;;;;;15.13;8.07;;;3.10;82.30;;;;;;6184558;23;20642;-80
2023/01/23 03:57:37;;;;;;;14.88;8.68;;;3.10;82.20;;;;;;6183377;23;20291;-81
2023/01/23 04:00:23;;;;;;;15.48;8.43;;;3.10;82.30;;;;;;6184771;23;20183;-81
2023/01/23 04:03:01;;;;;;;14.88;8.55;;;3.10;82.10;;;;;;6183687;23;20195;-81
2023/01/23 04:05:29;;;;;;;18.92;9.20;;;3.10;82.20;;;;;;6183409;23;20632;-82
2023/01/23 04:07:58;;;;;;;16.48;9.30;;;3.10;82.30;;;;;;6184420;23;20253;-81
2023/01/23 04:10:27;;;;;;;14.43;8.55;;;3.10;82.40;;;;;;6184266;23;20227;-82
2023/01/23 04:13:01;;;;;;;14.43;9.27;;;3.10;82.30;;;;;;6183564;23;20192;-82
2023/01/23 04:15:32;;;;;;;14.77;8.40;;;3.10;82.40;;;;;;6183913;23;20176;-83
2023/01/23 04:18:01;;;;;;;13.63;8.27;;;3.20;82.40;;;;;;6182204;23;20196;-80
2023/01/23 04:20:29;;;;;;;12.18;7.70;;;3.20;82.30;;;;;;6185937;23;20227;-81
2023/01/23 04:22:58;;;;;;;13.70;8.18;;;3.20;82.20;;;;;;6185863;23;20200;-82
2023/01/23 04:25:28;;;;;;;13.48;7.97;;;3.20;82.20;;;;;;6185160;23;20187;-83
2023/01/23 04:27:56;;;;;;;13.50;7.95;;;3.20;82.10;;;;;;6185361;23;20204;-81
2023/01/23 04:30:24;;;;;;;13.75;7.50;;;3.20;82.20;;;;;;6186491;23;20251;-81
2023/01/23 04:32:54;;;;;;;14.65;8.05;;;3.20;82.20;;;;;;6185224;23;20176;-81
2023/01/23 04:35:22;;;;;;;15.98;8.55;;;3.20;82.00;;;;;;6184694;23;20242;-82
2023/01/23 04:37:51;;;;;;;15.05;8.10;;;3.10;82.00;;;;;;6185330;23;20203;-81
2023/01/23 04:40:20;;;;;;;15.70;7.68;;;3.10;82.10;;;;;;6184871;23;20752;-82
2023/01/23 04:42:53;;;;;;;14.55;8.23;;;3.10;82.10;;;;;;6184483;23;20193;-83
2023/01/23 04:45:36;;;;;;;13.07;8.05;;;3.10;82.10;;;;;;6184843;23;20169;-80
2023/01/23 04:48:29;;;;;;;12.73;7.57;;;3.00;82.10;;;;;;6164801;23;20203;-81
2023/01/23 04:50:58;;;;;;;15.15;9.07;;;3.00;82.20;;;;;;6185899;23;20176;-81
2023/01/23 04:53:26;;;;;;;15.88;8.85;;;3.00;82.20;;;;;;6185882;23;20184;-81
2023/01/23 04:55:59;;;;;;;14.98;8.63;;;3.00;82.30;;;;;;6182673;23;20178;-82
2023/01/23 04:58:27;;;;;;;14.13;8.18;;;3.10;82.30;;;;;;6183810;23;20223;-85
2023/01/23 05:01:02;;;;;;;13.05;7.70;;;3.10;82.30;;;;;;6185694;23;20194;-80
2023/01/23 05:03:34;;;;;;;12.90;7.60;;;3.10;82.10;;;;;;6181319;23;20209;-82
2023/01/23 05:06:02;;;;;;;13.70;8.68;;;3.10;82.10;;;;;;6185846;23;20267;-81
2023/01/23 05:08:30;;;;;;;15.93;8.50;;;3.00;82.20;;;;;;6183965;23;20193;-81
2023/01/23 05:11:11;;;;;;;15.82;7.95;;;3.00;82.10;;;;;;6183488;23;20508;-81
2023/01/23 05:13:40;;;;;;;14.75;8.48;;;3.00;82.20;;;;;;6181977;23;20259;-83
2023/01/23 05:16:08;;;;;;;13.35;8.10;;;3.00;82.30;;;;;;6182795;23;20294;-79
2023/01/23 05:18:57;;;;;;;13.85;7.82;;;3.00;82.30;;;;;;6208963;23;20216;-80
2023/01/23 05:21:27;;;;;;;13.48;8.50;;;3.00;82.20;;;;;;6184155;23;20172;-79
2023/01/23 05:23:55;;;;;;;15.10;8.82;;;3.00;82.20;;;;;;6188013;23;20200;-80
2023/01/23 05:26:23;;;;;;;18.73;11.40;;;3.00;82.20;;;;;;6184025;23;20271;-80
2023/01/23 05:28:51;;;;;;;19.10;10.93;;;3.00;82.30;;;;;;6186951;23;20214;-80
2023/01/23 05:31:20;;;;;;;14.77;9.27;;;3.00;82.30;;;;;;6185220;23;20176;-80
2023/01/23 05:34:09;;;;;;;15.27;9.63;;;3.00;82.30;;;;;;6211020;23;20177;-80
2023/01/23 05:36:39;;;;;;;14.20;8.73;;;3.00;82.20;;;;;;6183460;23;20180;-80
2023/01/23 05:39:08;;;;;;;14.60;8.30;;;3.10;82.30;;;;;;6184045;23;20287;-81
2023/01/23 05:41:36;;;;;;;18.52;10.02;;;3.10;82.30;;;;;;6184118;23;20979;-81
2023/01/23 05:44:39;;;;;;;16.58;8.23;;;3.10;82.30;;;;;;6069691;23;20246;-81
2023/01/23 05:47:14;;;;;;;13.80;8.45;;;3.10;82.30;;;;;;6166310;23;20245;-80
2023/01/23 05:49:44;;;;;;;18.38;9.32;;;3.10;82.30;;;;;;6183884;23;20203;-81
2023/01/23 05:52:12;;;;;;;14.32;8.75;;;3.10;82.40;;;;;;6184674;23;20183;-81
2023/01/23 05:54:40;;;;;;;17.75;8.77;;;3.10;82.30;;;;;;6184148;23;20231;-82
2023/01/23 05:57:09;;;;;;;14.93;8.90;;;3.20;82.20;;;;;;6184431;23;20176;-82
2023/01/23 05:59:37;;;;;;;15.05;8.25;;;3.10;82.10;;;;;;6222067;23;20192;-81
2023/01/23 06:02:30;;;;;;;16.17;9.02;;;3.10;82.20;;;;;;6211593;23;20160;-81
2023/01/23 06:05:28;;;;;;;16.48;11.32;;;3.10;82.20;;;;;;6210081;23;20222;-80
2023/01/23 06:08:01;;;;;;;19.75;9.23;;;3.10;82.20;;;;;;6184930;23;20223;-81
2023/01/23 06:10:30;;;;;;;13.00;8.30;;;3.10;82.20;;;;;;6185403;23;20180;-81
2023/01/23 06:12:57;;;;;;;13.13;8.02;;;3.10;82.20;;;;;;6183525;23;20180;-82
2023/01/23 06:15:25;;;;;;;16.60;9.90;;;3.10;82.20;;;;;;6181683;23;20187;-82
2023/01/23 06:17:55;;;;;;;13.20;8.30;;;3.00;82.20;;;;;;6183229;23;20200;-80
2023/01/23 06:20:24;;;;;;;14.95;9.02;;;3.00;82.10;;;;;;6182095;23;20175;-81
2023/01/23 06:22:54;;;;;;;17.45;10.10;;;3.00;82.20;;;;;;6180498;23;20184;-82
2023/01/23 06:25:22;;;;;;;20.63;11.55;;;3.00;82.20;;;;;;6180590;23;20280;-82
2023/01/23 06:27:52;;;;;;;16.38;10.05;;;3.00;82.20;;;;;;6181932;23;20211;-82
2023/01/23 06:30:23;;;;;;;32.13;17.90;;;3.00;82.20;;;;;;6181934;23;20253;-82
2023/01/23 06:32:51;;;;;;;24.70;13.50;;;2.90;82.20;;;;;;6181004;23;20187;-82
2023/01/23 06:35:25;;;;;;;20.30;13.05;;;3.00;82.30;;;;;;6183683;23;20172;-81
2023/01/23 06:37:56;;;;;;;19.50;11.18;;;3.00;82.30;;;;;;6183007;23;20242;-81
2023/01/23 06:40:25;;;;;;;17.90;11.63;;;3.00;82.40;;;;;;6183748;23;20183;-81
2023/01/23 06:43:16;;;;;;;22.95;14.05;;;3.00;82.40;;;;;;6184084;23;20222;-81
2023/01/23 06:45:44;;;;;;;23.38;14.50;;;3.00;82.30;;;;;;6183123;23;20196;-81
2023/01/23 06:48:12;;;;;;;21.45;14.55;;;3.00;82.40;;;;;;6220723;23;20194;-81
2023/01/23 06:50:42;;;;;;;24.45;16.63;;;3.00;82.40;;;;;;6184359;23;20177;-81
2023/01/23 06:53:14;;;;;;;23.27;13.45;;;3.00;82.40;;;;;;6184041;23;20172;-81
2023/01/23 06:55:44;;;;;;;20.70;13.30;;;3.00;82.40;;;;;;6184174;23;20180;-80
2023/01/23 06:58:14;;;;;;;18.48;13.05;;;3.00;82.40;;;;;;6184694;23;20207;-81
2023/01/23 07:00:43;;;;;;;19.70;13.55;;;3.10;82.40;;;;;;6184941;23;20266;-81
2023/01/23 07:03:20;;;;;;;23.90;13.25;;;3.10;82.50;;;;;;6186991;23;20243;-81
2023/01/23 07:05:48;;;;;;;32.92;18.40;;;3.10;82.40;;;;;;6183522;23;20844;-79
2023/01/23 07:08:18;;;;;;;33.35;17.35;;;3.10;82.30;;;;;;6181827;23;20200;-80
2023/01/23 07:10:49;;;;;;;30.73;16.15;;;3.10;82.30;;;;;;6183645;23;20192;-84
2023/01/23 07:39:08;;;;;;;17.08;11.27;;;2.90;82.30;;;;;;6039951;23;20344;-85
2023/01/23 07:41:36;;;;;;;17.05;11.57;;;2.90;82.30;;;;;;6148691;23;20866;-85
2023/01/23 07:44:07;;;;;;;18.27;10.00;;;2.90;82.30;;;;;;6181877;23;20180;-85
2023/01/23 07:46:35;;;;;;;21.15;11.43;;;2.90;82.30;;;;;;6181397;23;20585;-85
2023/01/23 07:49:04;;;;;;;31.85;15.48;;;2.90;82.30;;;;;;6181809;23;20196;-85
2023/01/23 07:51:32;;;;;;;20.77;11.98;;;3.00;82.20;;;;;;6218573;23;20175;-85
2023/01/23 07:54:00;;;;;;;31.70;15.82;;;3.00;82.20;;;;;;6184002;23;20576;-85
2023/01/23 07:56:29;;;;;;;24.70;14.73;;;2.90;82.20;;;;;;6183962;23;20211;-85
2023/01/23 07:58:57;;;;;;;30.45;16.42;;;2.90;82.30;;;;;;6184311;23;20207;-85
2023/01/23 08:01:26;;;;;;;35.45;18.55;;;3.00;82.40;;;;;;6220967;23;20383;-85
2023/01/23 08:03:54;;;;;;;21.13;12.80;;;3.00;82.40;;;;;;6184166;23;20187;-85
2023/01/23 08:06:22;;;;;;;22.10;13.60;;;3.00;82.20;;;;;;6184254;23;20250;-85
2023/01/23 08:08:50;;;;;;;19.92;12.80;;;3.00;82.20;;;;;;6185249;23;20287;-86
2023/01/23 08:11:18;;;;;;;20.60;12.98;;;3.10;82.10;;;;;;6185387;23;20188;-85
2023/01/23 08:13:50;;;;;;;22.77;13.27;;;3.10;82.00;;;;;;6185994;23;20262;-85
2023/01/23 08:16:18;;;;;;;21.90;12.13;;;3.10;82.00;;;;;;6187315;23;20168;-85
2023/01/23 08:18:46;;;;;;;26.05;13.40;;;3.00;82.00;;;;;;6183978;23;20192;-86
2023/01/23 08:21:14;;;;;;;25.20;12.88;;;3.00;82.10;;;;;;6184562;23;20282;-83
2023/01/23 08:23:42;;;;;;;22.17;13.43;;;3.00;82.10;;;;;;6221633;23;20196;-85
2023/01/23 08:26:13;;;;;;;24.48;13.10;;;3.00;82.00;;;;;;6183548;23;20346;-86
2023/01/23 08:28:42;;;;;;;29.13;15.30;;;3.00;82.00;;;;;;6184427;23;20247;-86
2023/01/23 08:31:12;;;;;;;23.42;12.27;;;3.00;82.00;;;;;;6184839;23;20207;-86
2023/01/23 08:33:41;;;;;;;32.67;17.05;;;3.00;82.10;;;;;;6184006;23;20238;-85
2023/01/23 08:36:11;;;;;;;30.77;17.25;;;3.10;82.10;;;;;;6183459;23;20180;-86
2023/01/23 08:38:39;;;;;;;23.15;14.52;;;3.10;82.10;;;;;;6183697;23;20200;-86
2023/01/23 08:41:10;;;;;;;41.97;18.10;;;3.10;81.90;;;;;;6184289;23;20271;-85
2023/01/23 08:43:40;;;;;;;25.17;14.40;;;3.10;81.80;;;;;;6184071;23;20200;-86
2023/01/23 08:46:11;;;;;;;22.25;14.57;;;3.10;81.90;;;;;;6183176;23;20204;-85
2023/01/23 08:48:39;;;;;;;17.27;11.27;;;3.10;81.90;;;;;;6220791;23;20550;-86
2023/01/23 08:51:10;;;;;;;25.27;14.70;;;3.10;81.80;;;;;;6220620;23;20178;-85
2023/01/23 08:53:38;;;;;;;30.08;19.23;;;3.10;81.80;;;;;;6183792;23;20183;-86
2023/01/23 08:56:08;;;;;;;20.98;12.00;;;3.10;81.80;;;;;;6184115;23;20172;-85
2023/01/23 08:58:36;;;;;;;23.40;15.57;;;3.10;81.60;;;;;;6184034;23;20196;-85
2023/01/23 09:01:04;;;;;;;23.63;15.05;;;3.10;81.80;;;;;;6184557;23;20208;-86
2023/01/23 09:03:34;;;;;;;19.33;11.93;;;3.20;81.60;;;;;;6183899;23;20276;-86
2023/01/23 09:06:02;;;;;;;21.10;13.80;;;3.10;81.40;;;;;;6183172;23;20197;-85
2023/01/23 09:08:30;;;;;;;19.25;11.43;;;3.10;81.40;;;;;;6184422;23;20204;-85
2023/01/23 09:11:00;;;;;;;17.02;10.60;;;3.10;81.50;;;;;;6184768;23;20184;-85
2023/01/23 09:13:29;;;;;;;17.20;10.80;;;3.10;81.30;;;;;;6184500;23;20202;-85
2023/01/23 09:15:57;;;;;;;20.40;11.75;;;3.10;81.30;;;;;;6184710;23;20258;-84
2023/01/23 09:18:26;;;;;;;21.45;11.70;;;3.00;81.40;;;;;;6183312;23;20223;-84
2023/01/23 09:20:55;;;;;;;19.50;11.88;;;3.00;81.60;;;;;;6183502;23;20607;-85
2023/01/23 09:23:24;;;;;;;18.27;13.00;;;3.10;81.50;;;;;;6183483;23;20183;-85
2023/01/23 09:25:52;;;;;;;20.52;11.95;;;3.10;81.50;;;;;;6183474;23;20279;-86
2023/01/23 09:28:20;;;;;;;47.03;23.88;;;3.10;81.40;;;;;;6220259;23;20224;-85
2023/01/23 09:30:48;;;;;;;22.70;15.38;;;3.10;81.40;;;;;;6183615;23;20266;-84
2023/01/23 09:33:16;;;;;;;17.50;11.68;;;3.10;81.50;;;;;;6183199;23;20187;-85
2023/01/23 09:35:45;;;;;;;27.00;16.45;;;3.10;81.50;;;;;;6183406;23;20207;-85
2023/01/23 09:38:14;;;;;;;18.48;11.90;;;3.10;81.40;;;;;;6182900;23;20203;-86
2023/01/23 09:41:11;;;;;;;17.15;11.75;;;3.20;81.50;;;;;;6184607;23;20740;-80
2023/01/23 09:43:52;;;;;;;16.83;10.15;;;3.20;81.30;;;;;;6181094;23;20864;-81
2023/01/23 09:46:27;;;;;;;18.75;12.35;;;3.20;81.30;;;;;;6179488;23;20274;-79
2023/01/23 09:49:06;;;;;;;17.13;10.60;;;3.20;81.30;;;;;;6180027;23;20294;-80
2023/01/23 09:51:55;;;;;;;18.55;11.48;;;3.20;81.30;;;;;;6205443;23;20965;-81
2023/01/23 09:54:39;;;;;;;19.85;11.90;;;3.30;81.20;;;;;;6207453;23;20804;-80
2023/01/23 09:57:17;;;;;;;18.60;10.38;;;3.30;81.30;;;;;;6179404;23;20206;-80
2023/01/23 09:59:54;;;;;;;20.40;12.30;;;3.30;81.30;;;;;;6206063;23;20260;-80
2023/01/23 10:02:28;;;;;;;17.15;11.65;;;3.30;81.30;;;;;;6180947;23;20749;-81
2023/01/23 10:04:58;;;;;;;20.67;12.80;;;3.30;81.30;;;;;;6180689;23;20263;-81
2023/01/23 10:07:52;;;;;;;20.33;13.15;;;3.30;81.10;;;;;;6179718;23;20204;-81
2023/01/23 10:10:45;;;;;;;22.88;11.25;;;3.30;81.20;;;;;;6180740;23;20187;-81
2023/01/23 10:13:17;;;;;;;16.00;9.52;;;3.40;81.20;;;;;;6217214;23;20160;-80
2023/01/23 10:16:15;;;;;;;14.63;9.88;;;3.40;81.10;;;;;;6179539;23;20271;-80
2023/01/23 10:19:02;;;;;;;17.63;11.38;;;3.40;81.10;;;;;;6216990;23;20196;-80
2023/01/23 10:21:35;;;;;;;22.38;13.35;;;3.40;81.10;;;;;;6217837;23;20195;-80
2023/01/23 10:24:14;;;;;;;23.65;14.23;;;3.40;81.10;;;;;;6219242;23;20169;-80
2023/01/23 10:26:46;;;;;;;20.20;12.18;;;3.40;81.10;;;;;;6217154;23;20597;-80
2023/01/23 10:29:21;;;;;;;19.23;11.68;;;3.40;81.20;;;;;;6181667;23;20224;-80
2023/01/23 10:31:54;;;;;;;21.90;11.90;;;3.50;81.10;;;;;;6216632;23;20164;-80
2023/01/23 10:34:33;;;;;;;18.70;10.73;;;3.50;81.10;;;;;;6217490;23;20841;-80
2023/01/23 10:37:11;;;;;;;16.38;10.57;;;3.50;81.00;;;;;;6217032;23;20167;-80
2023/01/23 10:39:50;;;;;;;15.88;10.18;;;3.60;81.00;;;;;;6218746;23;20239;-80
2023/01/23 10:42:23;;;;;;;19.40;10.98;;;3.60;80.70;;;;;;6181418;23;20191;-80
2023/01/23 10:44:51;;;;;;;18.27;12.15;;;3.60;80.80;;;;;;6217563;23;20223;-80
2023/01/23 10:47:25;;;;;;;17.02;10.98;;;3.60;80.80;;;;;;6217434;23;20202;-80
2023/01/23 10:49:56;;;;;;;18.27;11.32;;;3.60;80.70;;;;;;6218243;23;20160;-80
2023/01/23 10:52:31;;;;;;;14.77;10.40;;;3.60;80.80;;;;;;6216568;23;20172;-81
2023/01/23 10:54:59;;;;;;;17.35;10.77;;;3.60;80.80;;;;;;6214373;23;20172;-79
2023/01/23 10:57:30;;;;;;;20.70;11.60;;;3.70;80.70;;;;;;6215222;23;20852;-78
2023/01/23 11:00:03;;;;;;;19.30;10.85;;;3.70;80.70;;;;;;6216630;23;20191;-79
2023/01/23 11:02:32;;;;;;;17.63;11.82;;;3.70;80.70;;;;;;6218320;23;20160;-81
2023/01/23 11:05:02;;;;;;;20.55;11.77;;;3.70;80.80;;;;;;6182556;23;20172;-81
2023/01/23 11:07:31;;;;;;;22.92;17.02;;;3.70;80.60;;;;;;6218596;23;20250;-79
2023/01/23 11:10:03;;;;;;;18.52;12.50;;;3.70;80.60;;;;;;6219932;23;20176;-81
2023/01/23 11:12:34;;;;;;;21.80;12.43;;;3.70;80.70;;;;;;6181513;23;20169;-81
2023/01/23 11:15:19;;;;;;;19.33;12.43;;;3.70;80.60;;;;;;6219233;23;20184;-81
2023/01/23 11:17:48;;;;;;;18.23;12.38;;;3.80;80.70;;;;;;6219432;23;20189;-80
2023/01/23 11:20:26;;;;;;;15.30;10.93;;;3.80;80.80;;;;;;6219245;23;20991;-80
2023/01/23 11:23:05;;;;;;;19.65;10.52;;;3.80;80.70;;;;;;6222348;23;20156;-81
2023/01/23 11:25:36;;;;;;;18.33;11.73;;;3.80;80.40;;;;;;6222406;23;20591;-81
2023/01/23 11:28:22;;;;;;;20.20;11.40;;;3.80;80.50;;;;;;6222016;23;20203;-81
2023/01/23 11:30:55;;;;;;;20.75;12.48;;;3.80;80.50;;;;;;6223102;23;20161;-82
2023/01/23 11:33:43;;;;;;;17.25;10.75;;;3.80;80.60;;;;;;6182739;23;20191;-81
2023/01/23 11:36:33;;;;;;;21.25;12.38;;;3.80;80.60;;;;;;6181591;23;20220;-78
2023/01/23 11:39:06;;;;;;;18.52;12.00;;;3.90;80.50;;;;;;6181417;23;20762;-81
2023/01/23 11:41:36;;;;;;;19.23;13.30;;;3.80;80.40;;;;;;6218163;23;20165;-80
2023/01/23 11:44:08;;;;;;;17.73;12.38;;;3.80;80.50;;;;;;6219549;23;20160;-81
2023/01/23 11:46:55;;;;;;;17.15;11.38;;;3.80;80.60;;;;;;6217634;23;20192;-80
2023/01/23 11:49:40;;;;;;;17.88;11.10;;;3.80;80.50;;;;;;6220073;23;20233;-80
2023/01/23 11:52:27;;;;;;;20.02;11.88;;;3.80;80.40;;;;;;6222374;23;20164;-80
2023/01/23 11:55:13;;;;;;;20.27;12.13;;;3.80;80.40;;;;;;6224725;23;20164;-80
2023/01/23 11:57:55;;;;;;;20.13;11.80;;;3.90;80.50;;;;;;6222461;23;20191;-81
2023/01/23 12:00:34;;;;;;;17.10;11.45;;;3.80;80.40;;;;;;6222016;23;20190;-79
2023/01/23 12:03:26;;;;;;;19.33;11.35;;;3.80;80.40;;;;;;6222913;23;20156;-81
2023/01/23 12:06:26;;;;;;;18.30;11.02;;;3.90;80.30;;;;;;6222888;23;20203;-80
2023/01/23 12:09:01;;;;;;;19.20;12.45;;;3.90;80.40;;;;;;6223118;23;20199;-81
2023/01/23 12:11:38;;;;;;;20.55;12.25;;;3.90;80.60;;;;;;6222157;23;20165;-80
2023/01/23 12:14:14;;;;;;;20.30;12.30;;;3.90;80.60;;;;;;6219590;23;20156;-81
2023/01/23 12:16:58;;;;;;;22.98;14.00;;;4.00;80.60;;;;;;6218828;23;20646;-80
2023/01/23 12:19:42;;;;;;;20.63;13.07;;;4.00;80.50;;;;;;6183163;23;20801;-82
2023/01/23 12:22:15;;;;;;;20.67;12.55;;;4.00;80.50;;;;;;6217554;23;20161;-81
2023/01/23 12:24:56;;;;;;;20.83;12.65;;;4.00;80.50;;;;;;6179826;23;20556;-81
2023/01/23 12:27:35;;;;;;;20.83;11.82;;;4.00;80.50;;;;;;6216791;23;20253;-81
2023/01/23 12:30:28;;;;;;;20.27;12.15;;;4.10;80.40;;;;;;6217211;23;20164;-82
2023/01/23 12:33:11;;;;;;;19.20;12.23;;;4.10;80.50;;;;;;6216363;23;20168;-81
2023/01/23 12:35:48;;;;;;;23.95;13.73;;;4.10;80.40;;;;;;6217851;23;20165;-81
2023/01/23 12:38:26;;;;;;;22.75;13.27;;;4.10;80.40;;;;;;6219377;23;20184;-81
2023/01/23 12:41:11;;;;;;;24.73;13.80;;;4.10;80.40;;;;;;6221806;23;20782;-81
2023/01/23 12:43:45;;;;;;;17.52;11.52;;;4.20;80.40;;;;;;6221491;23;20164;-80
2023/01/23 12:46:19;;;;;;;18.75;12.18;;;4.20;80.10;;;;;;6221696;23;20169;-81
2023/01/23 12:48:53;;;;;;;22.77;12.30;;;4.20;80.00;;;;;;6213248;23;20210;-80
2023/01/23 12:51:26;;;;;;;20.85;12.65;;;4.20;80.10;;;;;;6223944;23;20352;-81
2023/01/23 12:53:58;;;;;;;19.00;11.50;;;4.10;80.10;;;;;;6185252;23;20169;-80
2023/01/23 12:56:30;;;;;;;21.00;13.45;;;4.10;80.10;;;;;;6221416;23;20240;-80
2023/01/23 12:59:06;;;;;;;21.70;12.85;;;4.10;80.10;;;;;;6221241;23;20192;-80
2023/01/23 13:01:52;;;;;;;21.85;12.60;;;4.10;80.10;;;;;;6222232;23;20164;-80
2023/01/23 13:04:36;;;;;;;29.23;15.23;;;4.10;80.00;;;;;;6184665;23;20686;-80
2023/01/23 13:07:19;;;;;;;21.10;12.52;;;4.10;79.90;;;;;;6220658;23;20239;-80
2023/01/23 13:10:05;;;;;;;31.65;16.65;;;4.10;80.00;;;;;;6185045;23;20515;-80
2023/01/23 13:12:34;;;;;;;29.77;14.88;;;4.10;80.00;;;;;;6225676;23;20172;-80
2023/01/23 13:15:22;;;;;;;27.55;14.20;;;4.10;80.00;;;;;;6225114;23;20218;-81
2023/01/23 13:18:22;;;;;;;23.90;14.57;;;4.10;80.10;;;;;;6222040;23;20211;-81
2023/01/23 13:23:44;;;;;;;26.30;14.80;;;4.10;80.00;;;;;;6189960;23;20207;-80
2023/01/23 13:26:31;;;;;;;25.50;13.40;;;4.10;80.00;;;;;;6216475;23;20573;-81
2023/01/23 13:29:04;;;;;;;30.48;15.40;;;4.20;80.10;;;;;;6226418;23;20192;-80
2023/01/23 13:31:39;;;;;;;40.88;19.80;;;4.20;80.00;;;;;;6225405;23;20588;-80
2023/01/23 13:34:38;;;;;;;37.08;17.10;;;4.20;80.00;;;;;;6224739;23;20243;-81
2023/01/23 13:37:49;;;;;;;22.20;13.00;;;4.20;79.80;;;;;;6223876;23;20212;-81
2023/01/23 13:40:21;;;;;;;24.20;13.20;;;4.20;79.80;;;;;;6223860;23;20161;-81
2023/01/23 13:42:49;;;;;;;20.45;11.63;;;4.20;79.80;;;;;;6221973;23;20187;-81
2023/01/23 13:45:29;;;;;;;25.58;13.82;;;4.20;79.80;;;;;;6222465;23;20943;-79